sensor_id;sensor_type;location;lat;lon;timestamp;pressure;altitude;pressure_sealevel;temperature;humidity
53908;BME280;40469;47.998;7.794;2022-07-09T00:00:35;100011.38;;;17.20;55.72
53908;BME280;40469;47.998;7.794;2022-07-09T00:03:00;100004.22;;;17.25;56.08
53908;BME280;40469;47.998;7.794;2022-07-09T00:05:26;100005.13;;;17.24;55.51
53908;BME280;40469;47.998;7.794;2022-07-09T00:07:51;100001.75;;;17.17;55.58
53908;BME280;40469;47.998;7.794;2022-07-09T00:10:16;100004.19;;;17.27;55.00
53908;BME280;40469;47.998;7.794;2022-07-09T00:12:42;100001.00;;;17.11;55.59
53908;BME280;40469;47.998;7.794;2022-07-09T00:15:07;99999.22;;;17.11;55.46
53908;BME280;40469;47.998;7.794;2022-07-09T00:17:33;99998.44;;;17.06;55.40
53908;BME280;40469;47.998;7.794;2022-07-09T00:19:58;99992.72;;;16.85;56.46
53908;BME280;40469;47.998;7.794;2022-07-09T00:22:24;99999.69;;;16.86;56.21
53908;BME280;40469;47.998;7.794;2022-07-09T00:24:49;99987.53;;;16.76;55.70
53908;BME280;40469;47.998;7.794;2022-07-09T00:27:15;99986.56;;;16.83;56.18
53908;BME280;40469;47.998;7.794;2022-07-09T00:29:40;99986.53;;;16.85;56.06
53908;BME280;40469;47.998;7.794;2022-07-09T00:32:06;99976.22;;;16.71;56.20
53908;BME280;40469;47.998;7.794;2022-07-09T00:34:31;99985.88;;;16.72;57.49
53908;BME280;40469;47.998;7.794;2022-07-09T00:36:58;99979.91;;;16.62;57.72
53908;BME280;40469;47.998;7.794;2022-07-09T00:39:24;99984.53;;;16.49;59.11
53908;BME280;40469;47.998;7.794;2022-07-09T00:41:49;99985.47;;;16.47;59.66
53908;BME280;40469;47.998;7.794;2022-07-09T00:44:14;99974.22;;;16.36;59.52
53908;BME280;40469;47.998;7.794;2022-07-09T00:46:40;99972.66;;;16.25;60.67
53908;BME280;40469;47.998;7.794;2022-07-09T00:49:05;99968.19;;;16.29;60.43
53908;BME280;40469;47.998;7.794;2022-07-09T00:51:31;99974.56;;;16.16;61.44
53908;BME280;40469;47.998;7.794;2022-07-09T00:53:58;99967.69;;;16.05;61.44
53908;BME280;40469;47.998;7.794;2022-07-09T00:56:25;99969.59;;;15.97;61.86
53908;BME280;40469;47.998;7.794;2022-07-09T00:58:52;99962.53;;;15.99;61.02
53908;BME280;40469;47.998;7.794;2022-07-09T01:01:18;99960.91;;;15.90;62.19
53908;BME280;40469;47.998;7.794;2022-07-09T01:03:43;99956.56;;;15.88;61.83
53908;BME280;40469;47.998;7.794;2022-07-09T01:06:09;99954.81;;;15.87;61.97
53908;BME280;40469;47.998;7.794;2022-07-09T01:08:34;99964.63;;;15.76;62.45
53908;BME280;40469;47.998;7.794;2022-07-09T01:11:00;99962.97;;;15.67;62.60
53908;BME280;40469;47.998;7.794;2022-07-09T01:13:25;99971.66;;;15.73;61.95
53908;BME280;40469;47.998;7.794;2022-07-09T01:15:51;99982.34;;;15.63;62.31
53908;BME280;40469;47.998;7.794;2022-07-09T01:18:16;99978.09;;;15.52;62.99
53908;BME280;40469;47.998;7.794;2022-07-09T01:20:42;99978.22;;;15.45;63.54
53908;BME280;40469;47.998;7.794;2022-07-09T01:23:07;99976.53;;;15.41;63.50
53908;BME280;40469;47.998;7.794;2022-07-09T01:25:38;99973.19;;;15.26;64.82
53908;BME280;40469;47.998;7.794;2022-07-09T01:28:05;99974.06;;;15.27;64.01
53908;BME280;40469;47.998;7.794;2022-07-09T01:30:36;99973.38;;;15.12;64.62
53908;BME280;40469;47.998;7.794;2022-07-09T01:33:02;99971.75;;;15.02;66.52
53908;BME280;40469;47.998;7.794;2022-07-09T01:35:27;99963.94;;;14.93;67.57
53908;BME280;40469;47.998;7.794;2022-07-09T01:37:53;99973.66;;;14.86;66.67
53908;BME280;40469;47.998;7.794;2022-07-09T01:40:19;99974.53;;;14.88;66.09
53908;BME280;40469;47.998;7.794;2022-07-09T01:42:45;99967.50;;;14.89;66.25
53908;BME280;40469;47.998;7.794;2022-07-09T01:45:11;99972.00;;;14.77;67.05
53908;BME280;40469;47.998;7.794;2022-07-09T01:47:36;99968.47;;;14.78;66.66
53908;BME280;40469;47.998;7.794;2022-07-09T01:50:02;99962.22;;;14.89;65.79
53908;BME280;40469;47.998;7.794;2022-07-09T01:52:29;99959.69;;;14.83;65.64
53908;BME280;40469;47.998;7.794;2022-07-09T01:54:54;99967.59;;;14.81;66.31
53908;BME280;40469;47.998;7.794;2022-07-09T01:57:20;99959.59;;;14.90;65.71
53908;BME280;40469;47.998;7.794;2022-07-09T01:59:45;99965.78;;;14.86;65.69
53908;BME280;40469;47.998;7.794;2022-07-09T02:02:10;99959.63;;;14.86;65.86
53908;BME280;40469;47.998;7.794;2022-07-09T02:04:36;99956.03;;;14.94;65.22
53908;BME280;40469;47.998;7.794;2022-07-09T02:07:01;99954.19;;;15.03;64.81
53908;BME280;40469;47.998;7.794;2022-07-09T02:09:27;99958.59;;;15.01;64.99
53908;BME280;40469;47.998;7.794;2022-07-09T02:11:52;99949.81;;;15.02;64.91
53908;BME280;40469;47.998;7.794;2022-07-09T02:14:17;99952.44;;;15.02;65.18
53908;BME280;40469;47.998;7.794;2022-07-09T02:16:43;99958.66;;;14.93;65.74
53908;BME280;40469;47.998;7.794;2022-07-09T02:19:08;99958.72;;;14.91;65.98
53908;BME280;40469;47.998;7.794;2022-07-09T02:21:34;99954.34;;;14.90;65.93
53908;BME280;40469;47.998;7.794;2022-07-09T02:23:59;99949.09;;;14.87;66.02
53908;BME280;40469;47.998;7.794;2022-07-09T02:26:27;99956.25;;;14.74;67.25
53908;BME280;40469;47.998;7.794;2022-07-09T02:28:57;99948.38;;;14.76;66.69
53908;BME280;40469;47.998;7.794;2022-07-09T02:31:23;99946.56;;;14.81;66.09
53908;BME280;40469;47.998;7.794;2022-07-09T02:33:48;99954.44;;;14.81;66.44
53908;BME280;40469;47.998;7.794;2022-07-09T02:36:14;99953.66;;;14.73;66.92
53908;BME280;40469;47.998;7.794;2022-07-09T02:38:39;99955.44;;;14.68;66.48
53908;BME280;40469;47.998;7.794;2022-07-09T02:41:05;99953.72;;;14.68;67.38
53908;BME280;40469;47.998;7.794;2022-07-09T02:43:30;99959.75;;;14.75;66.88
53908;BME280;40469;47.998;7.794;2022-07-09T02:45:56;99943.09;;;14.77;66.54
53908;BME280;40469;47.998;7.794;2022-07-09T02:48:22;99959.69;;;14.83;66.35
53908;BME280;40469;47.998;7.794;2022-07-09T02:50:49;99959.69;;;14.83;66.36
53908;BME280;40469;47.998;7.794;2022-07-09T02:53:14;99960.56;;;14.83;65.71
53908;BME280;40469;47.998;7.794;2022-07-09T02:55:40;99964.97;;;14.81;65.52
53908;BME280;40469;47.998;7.794;2022-07-09T02:58:05;99962.38;;;14.75;65.35
53908;BME280;40469;47.998;7.794;2022-07-09T03:00:30;99964.28;;;14.64;66.23
53908;BME280;40469;47.998;7.794;2022-07-09T03:02:55;99957.25;;;14.64;66.12
53908;BME280;40469;47.998;7.794;2022-07-09T03:05:21;99949.44;;;14.58;66.02
53908;BME280;40469;47.998;7.794;2022-07-09T03:07:46;99949.41;;;14.56;65.97
53908;BME280;40469;47.998;7.794;2022-07-09T03:10:12;99945.94;;;14.56;66.13
53908;BME280;40469;47.998;7.794;2022-07-09T03:12:37;99949.47;;;14.49;66.97
53908;BME280;40469;47.998;7.794;2022-07-09T03:15:03;99959.94;;;14.53;66.52
53908;BME280;40469;47.998;7.794;2022-07-09T03:17:28;99956.50;;;14.47;65.99
53908;BME280;40469;47.998;7.794;2022-07-09T03:19:53;99953.03;;;14.43;66.08
53908;BME280;40469;47.998;7.794;2022-07-09T03:22:19;99959.97;;;14.52;65.31
53908;BME280;40469;47.998;7.794;2022-07-09T03:24:44;99946.88;;;14.47;64.75
53908;BME280;40469;47.998;7.794;2022-07-09T03:27:09;99959.19;;;14.44;65.74
53908;BME280;40469;47.998;7.794;2022-07-09T03:29:35;99961.88;;;14.33;66.94
53908;BME280;40469;47.998;7.794;2022-07-09T03:32:00;99969.84;;;14.27;68.01
53908;BME280;40469;47.998;7.794;2022-07-09T03:34:26;99971.59;;;14.28;68.34
53908;BME280;40469;47.998;7.794;2022-07-09T03:36:51;99968.09;;;14.24;68.86
53908;BME280;40469;47.998;7.794;2022-07-09T03:39:17;99966.47;;;14.12;68.54
53908;BME280;40469;47.998;7.794;2022-07-09T03:41:42;99958.59;;;14.09;68.04
53908;BME280;40469;47.998;7.794;2022-07-09T03:44:07;99963.94;;;14.01;68.71
53908;BME280;40469;47.998;7.794;2022-07-09T03:46:33;99968.25;;;14.04;69.41
53908;BME280;40469;47.998;7.794;2022-07-09T03:48:59;99968.25;;;14.04;68.27
53908;BME280;40469;47.998;7.794;2022-07-09T03:51:24;99973.59;;;13.95;68.91
53908;BME280;40469;47.998;7.794;2022-07-09T03:53:50;99961.34;;;13.94;68.78
53908;BME280;40469;47.998;7.794;2022-07-09T03:56:15;99969.25;;;13.91;69.61
53908;BME280;40469;47.998;7.794;2022-07-09T03:58:40;99969.22;;;13.95;69.44
53908;BME280;40469;47.998;7.794;2022-07-09T04:01:08;99967.50;;;13.90;68.84
53908;BME280;40469;47.998;7.794;2022-07-09T04:03:33;99978.09;;;13.76;71.05
53908;BME280;40469;47.998;7.794;2022-07-09T04:05:59;99974.59;;;13.77;71.25
53908;BME280;40469;47.998;7.794;2022-07-09T04:08:24;99975.41;;;13.85;71.73
53908;BME280;40469;47.998;7.794;2022-07-09T04:10:49;99973.63;;;13.89;71.17
53908;BME280;40469;47.998;7.794;2022-07-09T04:13:14;99972.72;;;13.94;70.55
53908;BME280;40469;47.998;7.794;2022-07-09T04:15:40;99980.66;;;13.87;70.56
53908;BME280;40469;47.998;7.794;2022-07-09T04:18:05;99972.78;;;13.87;70.17
53908;BME280;40469;47.998;7.794;2022-07-09T04:20:30;99977.19;;;13.81;70.05
53908;BME280;40469;47.998;7.794;2022-07-09T04:22:56;99984.19;;;13.82;69.54
53908;BME280;40469;47.998;7.794;2022-07-09T04:25:21;99980.72;;;13.76;69.94
53908;BME280;40469;47.998;7.794;2022-07-09T04:27:46;99985.97;;;13.77;69.25
53908;BME280;40469;47.998;7.794;2022-07-09T04:30:12;99985.97;;;13.77;69.41
53908;BME280;40469;47.998;7.794;2022-07-09T04:32:37;99991.16;;;13.87;68.92
53908;BME280;40469;47.998;7.794;2022-07-09T04:35:03;99983.25;;;13.94;68.80
53908;BME280;40469;47.998;7.794;2022-07-09T04:37:28;99982.31;;;14.01;68.25
53908;BME280;40469;47.998;7.794;2022-07-09T04:39:54;99991.81;;;14.13;67.48
53908;BME280;40469;47.998;7.794;2022-07-09T04:42:19;99984.75;;;14.21;67.29
53908;BME280;40469;47.998;7.794;2022-07-09T04:44:45;99992.63;;;14.25;67.23
53908;BME280;40469;47.998;7.794;2022-07-09T04:47:11;99986.47;;;14.27;66.74
53908;BME280;40469;47.998;7.794;2022-07-09T04:49:36;99983.84;;;14.26;67.81
53908;BME280;40469;47.998;7.794;2022-07-09T04:52:02;99993.50;;;14.25;67.99
53908;BME280;40469;47.998;7.794;2022-07-09T04:54:27;99990.78;;;14.34;67.47
53908;BME280;40469;47.998;7.794;2022-07-09T04:56:52;99979.38;;;14.40;66.71
53908;BME280;40469;47.998;7.794;2022-07-09T04:59:18;99978.47;;;14.39;65.73
53908;BME280;40469;47.998;7.794;2022-07-09T05:01:43;99985.41;;;14.47;65.79
53908;BME280;40469;47.998;7.794;2022-07-09T05:04:08;99980.97;;;14.55;65.32
53908;BME280;40469;47.998;7.794;2022-07-09T05:06:34;99981.81;;;14.55;64.88
53908;BME280;40469;47.998;7.794;2022-07-09T05:08:59;99985.34;;;14.56;65.53
53908;BME280;40469;47.998;7.794;2022-07-09T05:11:24;99980.91;;;14.64;65.24
53908;BME280;40469;47.998;7.794;2022-07-09T05:13:50;99989.63;;;14.69;65.21
53908;BME280;40469;47.998;7.794;2022-07-09T05:16:16;99983.41;;;14.75;64.90
53908;BME280;40469;47.998;7.794;2022-07-09T05:18:41;99980.78;;;14.76;64.72
53908;BME280;40469;47.998;7.794;2022-07-09T05:21:07;99978.97;;;14.83;64.68
53908;BME280;40469;47.998;7.794;2022-07-09T05:23:32;99985.00;;;14.91;64.17
53908;BME280;40469;47.998;7.794;2022-07-09T05:25:58;99985.78;;;15.00;63.89
53908;BME280;40469;47.998;7.794;2022-07-09T05:28:23;99990.13;;;15.04;63.73
53908;BME280;40469;47.998;7.794;2022-07-09T05:30:49;99992.72;;;15.07;63.78
53908;BME280;40469;47.998;7.794;2022-07-09T05:33:14;99985.72;;;15.07;63.28
53908;BME280;40469;47.998;7.794;2022-07-09T05:35:39;99985.59;;;15.15;63.00
53908;BME280;40469;47.998;7.794;2022-07-09T05:38:05;99989.94;;;15.19;63.05
53908;BME280;40469;47.998;7.794;2022-07-09T05:40:31;99981.97;;;15.25;63.25
53908;BME280;40469;47.998;7.794;2022-07-09T05:42:56;99985.47;;;15.24;64.24
53908;BME280;40469;47.998;7.794;2022-07-09T05:45:22;99990.69;;;15.29;64.82
53908;BME280;40469;47.998;7.794;2022-07-09T05:47:47;99980.16;;;15.32;65.72
53908;BME280;40469;47.998;7.794;2022-07-09T05:50:13;99985.31;;;15.38;66.79
53908;BME280;40469;47.998;7.794;2022-07-09T05:52:38;99978.28;;;15.39;67.13
53908;BME280;40469;47.998;7.794;2022-07-09T05:55:04;99984.44;;;15.39;67.66
53908;BME280;40469;47.998;7.794;2022-07-09T05:57:29;99982.56;;;15.46;67.09
53908;BME280;40469;47.998;7.794;2022-07-09T05:59:55;99987.75;;;15.53;67.31
53908;BME280;40469;47.998;7.794;2022-07-09T06:02:21;99981.53;;;15.58;66.88
53908;BME280;40469;47.998;7.794;2022-07-09T06:04:47;99984.94;;;15.66;66.35
53908;BME280;40469;47.998;7.794;2022-07-09T06:07:12;99984.94;;;15.67;65.06
53908;BME280;40469;47.998;7.794;2022-07-09T06:09:37;99974.31;;;15.72;64.10
53908;BME280;40469;47.998;7.794;2022-07-09T06:12:03;99978.69;;;15.76;63.95
53908;BME280;40469;47.998;7.794;2022-07-09T06:14:29;99982.03;;;15.86;63.25
53908;BME280;40469;47.998;7.794;2022-07-09T06:16:54;99985.53;;;15.88;63.58
53908;BME280;40469;47.998;7.794;2022-07-09T06:19:20;99983.63;;;15.98;61.80
53908;BME280;40469;47.998;7.794;2022-07-09T06:21:46;99986.28;;;15.96;62.28
53908;BME280;40469;47.998;7.794;2022-07-09T06:24:11;99987.03;;;16.04;61.88
53908;BME280;40469;47.998;7.794;2022-07-09T06:26:36;99986.97;;;16.07;62.15
53908;BME280;40469;47.998;7.794;2022-07-09T06:29:02;99987.03;;;16.06;62.73
53908;BME280;40469;47.998;7.794;2022-07-09T06:31:27;99986.03;;;16.13;62.78
53908;BME280;40469;47.998;7.794;2022-07-09T06:33:52;99985.06;;;16.19;63.50
53908;BME280;40469;47.998;7.794;2022-07-09T06:36:18;99985.72;;;16.32;62.52
53908;BME280;40469;47.998;7.794;2022-07-09T06:38:43;99986.34;;;16.44;62.49
53908;BME280;40469;47.998;7.794;2022-07-09T06:41:27;99981.78;;;16.56;61.77
53908;BME280;40469;47.998;7.794;2022-07-09T06:43:53;99976.50;;;16.57;62.05
53908;BME280;40469;47.998;7.794;2022-07-09T06:46:18;99980.78;;;16.63;61.94
53908;BME280;40469;47.998;7.794;2022-07-09T06:48:47;99984.25;;;16.65;61.15
53908;BME280;40469;47.998;7.794;2022-07-09T06:51:19;99972.72;;;16.71;61.25
53908;BME280;40469;47.998;7.794;2022-07-09T06:53:44;99981.41;;;16.76;60.99
53908;BME280;40469;47.998;7.794;2022-07-09T06:56:09;99983.06;;;16.81;61.17
53908;BME280;40469;47.998;7.794;2022-07-09T06:58:35;99981.25;;;16.86;60.70
53908;BME280;40469;47.998;7.794;2022-07-09T07:01:00;99976.63;;;16.98;60.66
53908;BME280;40469;47.998;7.794;2022-07-09T07:03:25;99983.53;;;17.05;59.86
53908;BME280;40469;47.998;7.794;2022-07-09T07:05:51;99978.03;;;17.16;59.95
53908;BME280;40469;47.998;7.794;2022-07-09T07:08:16;99987.50;;;17.26;59.74
53908;BME280;40469;47.998;7.794;2022-07-09T07:10:43;99989.75;;;17.43;60.21
53908;BME280;40469;47.998;7.794;2022-07-09T07:13:08;99979.00;;;17.52;58.22
53908;BME280;40469;47.998;7.794;2022-07-09T07:15:35;99972.50;;;17.69;59.78
53908;BME280;40469;47.998;7.794;2022-07-09T07:18:01;99973.97;;;17.80;59.59
53908;BME280;40469;47.998;7.794;2022-07-09T07:20:26;99972.03;;;17.90;57.28
53908;BME280;40469;47.998;7.794;2022-07-09T07:22:52;99970.22;;;17.92;56.18
53908;BME280;40469;47.998;7.794;2022-07-09T07:25:17;99964.13;;;17.89;57.65
53908;BME280;40469;47.998;7.794;2022-07-09T07:27:42;99964.91;;;17.92;57.83
53908;BME280;40469;47.998;7.794;2022-07-09T07:30:08;99970.91;;;18.00;57.99
53908;BME280;40469;47.998;7.794;2022-07-09T07:32:34;99971.50;;;18.12;56.83
53908;BME280;40469;47.998;7.794;2022-07-09T07:34:59;99965.97;;;18.21;56.72
53908;BME280;40469;47.998;7.794;2022-07-09T07:37:24;99963.16;;;18.29;56.54
53908;BME280;40469;47.998;7.794;2022-07-09T07:39:50;99960.19;;;18.41;56.69
53908;BME280;40469;47.998;7.794;2022-07-09T07:42:15;99963.50;;;18.49;56.28
53908;BME280;40469;47.998;7.794;2022-07-09T07:44:41;99966.84;;;18.56;58.02
53908;BME280;40469;47.998;7.794;2022-07-09T07:47:07;99962.28;;;18.63;57.27
53908;BME280;40469;47.998;7.794;2022-07-09T07:49:32;99962.94;;;18.71;56.43
53908;BME280;40469;47.998;7.794;2022-07-09T07:51:58;99954.84;;;18.75;56.31
53908;BME280;40469;47.998;7.794;2022-07-09T07:54:23;99951.09;;;18.86;56.52
53908;BME280;40469;47.998;7.794;2022-07-09T07:56:48;99960.50;;;18.96;56.38
53908;BME280;40469;47.998;7.794;2022-07-09T07:59:16;99950.66;;;19.01;56.42
53908;BME280;40469;47.998;7.794;2022-07-09T08:01:41;99954.94;;;19.05;56.65
53908;BME280;40469;47.998;7.794;2022-07-09T08:04:06;99951.22;;;19.12;55.96
53908;BME280;40469;47.998;7.794;2022-07-09T08:06:32;99942.16;;;19.20;55.46
53908;BME280;40469;47.998;7.794;2022-07-09T08:08:57;99947.34;;;19.24;54.45
53908;BME280;40469;47.998;7.794;2022-07-09T08:11:23;99953.41;;;19.28;54.50
53908;BME280;40469;47.998;7.794;2022-07-09T08:13:48;99950.44;;;19.39;54.04
53908;BME280;40469;47.998;7.794;2022-07-09T08:16:13;99949.25;;;19.49;54.07
53908;BME280;40469;47.998;7.794;2022-07-09T08:18:39;99947.38;;;19.52;54.49
53908;BME280;40469;47.998;7.794;2022-07-09T08:21:04;99947.88;;;19.64;54.13
53908;BME280;40469;47.998;7.794;2022-07-09T08:23:30;99948.34;;;19.78;54.17
53908;BME280;40469;47.998;7.794;2022-07-09T08:25:55;99936.81;;;19.81;55.33
53908;BME280;40469;47.998;7.794;2022-07-09T08:28:21;99941.13;;;19.83;53.88
53908;BME280;40469;47.998;7.794;2022-07-09T08:30:46;99933.13;;;19.85;53.76
53908;BME280;40469;47.998;7.794;2022-07-09T08:33:11;99925.84;;;19.92;52.63
53908;BME280;40469;47.998;7.794;2022-07-09T08:35:37;99931.78;;;20.00;52.89
53908;BME280;40469;47.998;7.794;2022-07-09T08:38:02;99925.09;;;20.15;52.88
53908;BME280;40469;47.998;7.794;2022-07-09T08:40:28;99926.78;;;20.17;53.17
53908;BME280;40469;47.998;7.794;2022-07-09T08:42:54;99924.28;;;20.38;53.76
53908;BME280;40469;47.998;7.794;2022-07-09T08:45:20;99926.41;;;20.53;52.26
53908;BME280;40469;47.998;7.794;2022-07-09T08:47:46;99929.78;;;20.58;51.30
53908;BME280;40469;47.998;7.794;2022-07-09T08:50:12;99920.81;;;20.61;50.18
53908;BME280;40469;47.998;7.794;2022-07-09T08:52:39;99918.97;;;20.64;49.99
53908;BME280;40469;47.998;7.794;2022-07-09T08:55:05;99919.00;;;20.88;48.62
53908;BME280;40469;47.998;7.794;2022-07-09T08:57:32;99923.50;;;20.86;48.19
53908;BME280;40469;47.998;7.794;2022-07-09T09:00:00;99926.88;;;20.91;47.75
53908;BME280;40469;47.998;7.794;2022-07-09T09:02:25;99932.94;;;20.95;48.23
53908;BME280;40469;47.998;7.794;2022-07-09T09:04:50;99927.66;;;21.17;47.95
53908;BME280;40469;47.998;7.794;2022-07-09T09:07:17;99918.88;;;21.15;48.35
53908;BME280;40469;47.998;7.794;2022-07-09T09:09:43;99915.50;;;21.33;49.36
53908;BME280;40469;47.998;7.794;2022-07-09T09:12:09;99913.31;;;21.45;47.88
53908;BME280;40469;47.998;7.794;2022-07-09T09:14:35;99906.84;;;21.74;47.55
53908;BME280;40469;47.998;7.794;2022-07-09T09:17:05;99903.50;;;21.69;49.54
53908;BME280;40469;47.998;7.794;2022-07-09T09:19:30;99893.03;;;22.08;47.71
53908;BME280;40469;47.998;7.794;2022-07-09T09:21:56;99895.63;;;22.10;46.60
53908;BME280;40469;47.998;7.794;2022-07-09T09:24:23;99895.03;;;22.24;46.95
53908;BME280;40469;47.998;7.794;2022-07-09T09:26:50;99894.69;;;22.33;45.36
53908;BME280;40469;47.998;7.794;2022-07-09T09:29:15;99884.09;;;22.52;45.46
53908;BME280;40469;47.998;7.794;2022-07-09T09:31:40;99880.50;;;22.93;44.77
53908;BME280;40469;47.998;7.794;2022-07-09T09:36:35;99887.78;;;23.27;43.18
53908;BME280;40469;47.998;7.794;2022-07-09T09:39:10;99886.44;;;23.74;41.59
53908;BME280;40469;47.998;7.794;2022-07-09T09:41:36;99889.38;;;23.67;42.79
53908;BME280;40469;47.998;7.794;2022-07-09T09:44:04;99879.88;;;23.81;42.76
53908;BME280;40469;47.998;7.794;2022-07-09T09:46:34;99878.00;;;23.83;43.24
53908;BME280;40469;47.998;7.794;2022-07-09T09:48:59;99882.88;;;23.92;44.42
53908;BME280;40469;47.998;7.794;2022-07-09T09:51:28;99879.44;;;24.08;41.82
53908;BME280;40469;47.998;7.794;2022-07-09T09:53:56;99875.50;;;24.15;41.72
53908;BME280;40469;47.998;7.794;2022-07-09T09:56:24;99883.19;;;24.21;42.35
53908;BME280;40469;47.998;7.794;2022-07-09T09:58:49;99875.88;;;24.25;42.41
53908;BME280;40469;47.998;7.794;2022-07-09T10:01:15;99871.72;;;24.36;40.69
53908;BME280;40469;47.998;7.794;2022-07-09T10:03:40;99874.91;;;24.78;40.57
53908;BME280;40469;47.998;7.794;2022-07-09T10:06:06;99867.16;;;25.05;40.19
53908;BME280;40469;47.998;7.794;2022-07-09T10:08:32;99862.47;;;25.42;38.31
53908;BME280;40469;47.998;7.794;2022-07-09T10:10:57;99862.19;;;25.63;39.25
53908;BME280;40469;47.998;7.794;2022-07-09T10:13:23;99862.91;;;25.34;37.36
53908;BME280;40469;47.998;7.794;2022-07-09T10:15:50;99861.00;;;25.52;38.92
53908;BME280;40469;47.998;7.794;2022-07-09T10:18:19;99859.47;;;25.79;38.86
53908;BME280;40469;47.998;7.794;2022-07-09T10:20:45;99851.53;;;25.77;38.11
53908;BME280;40469;47.998;7.794;2022-07-09T10:23:23;99849.72;;;25.94;37.79
53908;BME280;40469;47.998;7.794;2022-07-09T10:25:50;99845.34;;;26.07;37.61
53908;BME280;40469;47.998;7.794;2022-07-09T10:28:19;99838.19;;;26.07;38.55
53908;BME280;40469;47.998;7.794;2022-07-09T10:30:46;99836.97;;;26.42;36.82
53908;BME280;40469;47.998;7.794;2022-07-09T10:33:13;99836.13;;;26.56;36.18
53908;BME280;40469;47.998;7.794;2022-07-09T10:38:08;99831.09;;;26.80;36.48
53908;BME280;40469;47.998;7.794;2022-07-09T10:40:44;99827.50;;;27.08;35.39
53908;BME280;40469;47.998;7.794;2022-07-09T10:43:11;99828.38;;;26.94;35.97
53908;BME280;40469;47.998;7.794;2022-07-09T10:45:39;99824.94;;;26.92;36.08
53908;BME280;40469;47.998;7.794;2022-07-09T10:48:06;99820.22;;;27.10;36.42
53908;BME280;40469;47.998;7.794;2022-07-09T10:50:36;99811.69;;;27.32;36.47
53908;BME280;40469;47.998;7.794;2022-07-09T10:53:02;99813.13;;;27.51;34.66
53908;BME280;40469;47.998;7.794;2022-07-09T10:55:29;99815.56;;;27.41;35.22
53908;BME280;40469;47.998;7.794;2022-07-09T10:57:56;99812.28;;;27.50;35.76
53908;BME280;40469;47.998;7.794;2022-07-09T11:00:26;99806.00;;;27.77;36.74
53908;BME280;40469;47.998;7.794;2022-07-09T11:02:58;99801.97;;;27.97;36.40
53908;BME280;40469;47.998;7.794;2022-07-09T11:05:28;99805.16;;;27.76;35.91
53908;BME280;40469;47.998;7.794;2022-07-09T11:10:20;99805.28;;;27.88;35.52
53908;BME280;40469;47.998;7.794;2022-07-09T11:12:49;99792.66;;;28.03;34.45
53908;BME280;40469;47.998;7.794;2022-07-09T11:15:18;99796.94;;;28.18;34.74
53908;BME280;40469;47.998;7.794;2022-07-09T11:17:44;99794.28;;;28.31;34.66
53908;BME280;40469;47.998;7.794;2022-07-09T11:20:18;99795.03;;;28.33;33.49
53908;BME280;40469;47.998;7.794;2022-07-09T11:22:47;99786.44;;;28.15;34.50
53908;BME280;40469;47.998;7.794;2022-07-09T11:25:14;99786.44;;;28.28;34.87
53908;BME280;40469;47.998;7.794;2022-07-09T11:27:40;99783.19;;;28.35;34.90
53908;BME280;40469;47.998;7.794;2022-07-09T11:30:06;99789.66;;;28.59;34.95
53908;BME280;40469;47.998;7.794;2022-07-09T11:32:31;99785.56;;;28.79;34.00
53908;BME280;40469;47.998;7.794;2022-07-09T11:34:57;99796.06;;;28.82;34.80
53908;BME280;40469;47.998;7.794;2022-07-09T11:37:23;99779.66;;;28.61;34.80
53908;BME280;40469;47.998;7.794;2022-07-09T11:39:51;99777.41;;;28.54;34.42
53908;BME280;40469;47.998;7.794;2022-07-09T11:42:17;99773.63;;;28.44;34.13
53908;BME280;40469;47.998;7.794;2022-07-09T11:44:53;99778.91;;;28.07;34.57
53908;BME280;40469;47.998;7.794;2022-07-09T11:47:19;99772.34;;;27.98;37.13
53908;BME280;40469;47.998;7.794;2022-07-09T11:49:48;99778.69;;;28.23;34.32
53908;BME280;40469;47.998;7.794;2022-07-09T11:52:25;99772.38;;;28.24;34.71
53908;BME280;40469;47.998;7.794;2022-07-09T11:54:58;99768.28;;;28.18;34.15
53908;BME280;40469;47.998;7.794;2022-07-09T11:57:24;99757.78;;;28.03;34.14
53908;BME280;40469;47.998;7.794;2022-07-09T11:59:49;99770.09;;;28.05;35.84
53908;BME280;40469;47.998;7.794;2022-07-09T12:04:50;99757.53;;;28.31;34.47
53908;BME280;40469;47.998;7.794;2022-07-09T12:07:16;99751.28;;;28.57;35.20
53908;BME280;40469;47.998;7.794;2022-07-09T12:09:41;99747.28;;;28.75;34.46
53908;BME280;40469;47.998;7.794;2022-07-09T12:12:06;99746.25;;;28.89;34.25
53908;BME280;40469;47.998;7.794;2022-07-09T12:14:32;99739.84;;;29.03;32.86
53908;BME280;40469;47.998;7.794;2022-07-09T12:16:57;99745.47;;;29.00;32.99
53908;BME280;40469;47.998;7.794;2022-07-09T12:19:23;99747.03;;;28.91;33.18
53908;BME280;40469;47.998;7.794;2022-07-09T12:21:48;99739.13;;;29.01;32.75
53908;BME280;40469;47.998;7.794;2022-07-09T12:24:14;99737.53;;;28.98;34.20
53908;BME280;40469;47.998;7.794;2022-07-09T12:26:40;99741.59;;;29.04;33.22
53908;BME280;40469;47.998;7.794;2022-07-09T12:29:05;99734.47;;;29.03;33.06
53908;BME280;40469;47.998;7.794;2022-07-09T12:31:30;99734.38;;;29.04;32.47
53908;BME280;40469;47.998;7.794;2022-07-09T12:33:57;99722.94;;;29.38;32.56
53908;BME280;40469;47.998;7.794;2022-07-09T12:36:23;99724.97;;;29.58;32.10
53908;BME280;40469;47.998;7.794;2022-07-09T12:38:48;99728.72;;;29.80;31.52
53908;BME280;40469;47.998;7.794;2022-07-09T12:41:13;99721.22;;;29.72;31.39
53908;BME280;40469;47.998;7.794;2022-07-09T12:43:38;99723.47;;;29.54;31.44
53908;BME280;40469;47.998;7.794;2022-07-09T12:46:04;99719.00;;;29.30;32.10
53908;BME280;40469;47.998;7.794;2022-07-09T12:48:29;99709.94;;;29.07;33.22
53908;BME280;40469;47.998;7.794;2022-07-09T12:50:55;99714.84;;;29.13;33.81
53908;BME280;40469;47.998;7.794;2022-07-09T12:53:20;99718.09;;;29.19;33.93
53908;BME280;40469;47.998;7.794;2022-07-09T12:55:45;99707.03;;;29.10;32.08
53908;BME280;40469;47.998;7.794;2022-07-09T12:58:12;99711.97;;;29.17;32.41
53908;BME280;40469;47.998;7.794;2022-07-09T13:00:38;99704.81;;;29.28;32.78
53908;BME280;40469;47.998;7.794;2022-07-09T13:03:03;99704.69;;;29.06;32.34